createdAt,value
2022-08-26T00:04:23.645Z,18.30
2022-08-26T00:06:50.769Z,18.50
2022-08-26T00:16:40.967Z,18.20
2022-08-26T00:21:41.434Z,18.10
2022-08-26T00:24:08.129Z,18.10
2022-08-26T00:31:31.239Z,18.00
2022-08-26T00:36:29.506Z,18.10
2022-08-26T00:38:57.128Z,19.10
2022-08-26T00:41:23.885Z,18.80
2022-08-26T00:46:28.753Z,17.90
2022-08-26T00:49:04.149Z,17.90
2022-08-26T00:51:50.999Z,17.80
2022-08-26T00:54:17.970Z,17.30
2022-08-26T00:59:14.387Z,17.80
2022-08-26T01:04:13.572Z,17.80
2022-08-26T01:11:38.514Z,17.60
2022-08-26T01:14:05.257Z,17.60
2022-08-26T01:19:03.649Z,17.60
2022-08-26T01:21:36.339Z,18.90
2022-08-26T01:29:11.934Z,17.60
2022-08-26T01:31:48.393Z,15.80
2022-08-26T01:34:22.759Z,18.60
2022-08-26T01:36:51.515Z,17.60
2022-08-26T01:39:18.675Z,17.60
2022-08-26T01:41:45.381Z,17.60
2022-08-26T01:44:15.872Z,17.60
2022-08-26T01:46:43.444Z,17.60
2022-08-26T01:49:10.112Z,17.60
2022-08-26T01:51:37.234Z,17.50
2022-08-26T01:54:05.164Z,17.50
2022-08-26T01:56:33.274Z,17.40
2022-08-26T01:59:05.316Z,17.40
2022-08-26T02:01:32.036Z,18.30
2022-08-26T02:04:05.645Z,17.30
2022-08-26T02:06:32.943Z,17.30
2022-08-26T02:09:01.625Z,17.20
2022-08-26T02:11:28.470Z,17.20
2022-08-26T02:13:57.288Z,17.20
2022-08-26T02:16:26.035Z,17.80
2022-08-26T02:18:54.129Z,17.10
2022-08-26T02:21:20.921Z,17.10
2022-08-26T02:23:47.631Z,17.70
2022-08-26T02:28:58.419Z,17.00
2022-08-26T02:33:52.396Z,16.90
2022-08-26T02:36:21.122Z,16.90
2022-08-26T02:38:47.839Z,16.90
2022-08-26T02:41:14.590Z,16.80
2022-08-26T02:43:41.247Z,16.90
2022-08-26T02:48:35.415Z,16.90
2022-08-26T02:51:02.768Z,16.80
2022-08-26T02:53:32.063Z,16.80
2022-08-26T02:56:02.569Z,16.80
2022-08-26T02:58:29.785Z,16.80
2022-08-26T03:03:23.849Z,16.80
2022-08-26T03:05:51.032Z,16.70
2022-08-26T03:08:17.796Z,16.80
2022-08-26T03:10:44.458Z,16.70
2022-08-26T03:13:11.160Z,16.70
2022-08-26T03:15:37.837Z,16.70
2022-08-26T03:18:04.846Z,13.30
2022-08-26T03:20:32.035Z,16.70
2022-08-26T03:22:58.758Z,16.70
2022-08-26T03:25:25.855Z,16.70
2022-08-26T03:33:12.159Z,16.70
2022-08-26T03:35:39.787Z,16.70
2022-08-26T03:38:08.213Z,16.70
2022-08-26T03:40:36.557Z,16.70
2022-08-26T03:43:07.070Z,16.70
2022-08-26T03:48:03.924Z,16.50
2022-08-26T03:50:31.090Z,16.50
2022-08-26T03:57:59.255Z,16.50
2022-08-26T04:00:25.951Z,16.60
2022-08-26T04:05:21.625Z,16.50
2022-08-26T04:10:20.370Z,16.50
2022-08-26T04:15:15.538Z,16.50
2022-08-26T04:20:10.354Z,16.50
2022-08-26T04:22:37.029Z,16.50
2022-08-26T04:25:03.945Z,16.50
2022-08-26T04:27:33.679Z,16.40
2022-08-26T04:30:00.601Z,17.90
2022-08-26T04:32:27.520Z,16.40
2022-08-26T04:37:21.932Z,16.40
2022-08-26T04:39:53.293Z,16.40
2022-08-26T04:42:22.841Z,16.50
2022-08-26T04:44:53.208Z,17.90
2022-08-26T04:49:47.729Z,16.50
2022-08-26T04:52:14.544Z,16.50
2022-08-26T04:54:42.849Z,16.60
2022-08-26T04:57:10.591Z,16.60
2022-08-26T04:59:39.493Z,16.70
2022-08-26T05:02:06.970Z,15.50
2022-08-26T05:04:33.993Z,16.80
2022-08-26T05:07:02.810Z,16.90
2022-08-26T05:09:29.748Z,16.90
2022-08-26T05:11:57.289Z,16.90
2022-08-26T05:14:24.033Z,17.00
2022-08-26T05:16:51.041Z,17.00
2022-08-26T05:19:18.814Z,17.00
2022-08-26T05:21:47.249Z,17.10
2022-08-26T05:24:14.080Z,17.20
2022-08-26T05:29:07.923Z,17.10
2022-08-26T05:31:35.016Z,17.20
2022-08-26T05:36:31.323Z,17.30
2022-08-26T05:38:58.140Z,17.40
2022-08-26T05:41:28.284Z,17.40
2022-08-26T05:44:05.074Z,17.70
2022-08-26T05:48:59.538Z,17.90
2022-08-26T05:53:57.303Z,18.20
2022-08-26T05:56:26.129Z,19.20
2022-08-26T05:58:53.148Z,18.30
2022-08-26T06:01:26.021Z,19.10
2022-08-26T06:06:28.115Z,18.70
2022-08-26T06:08:55.305Z,19.30
2022-08-26T06:11:26.476Z,18.70
2022-08-26T06:13:53.890Z,18.90
2022-08-26T06:16:23.313Z,20.90
2022-08-26T06:18:51.325Z,19.00
2022-08-26T06:21:23.811Z,19.00
2022-08-26T06:24:10.212Z,18.80
2022-08-26T06:26:37.464Z,19.00
2022-08-26T06:29:05.248Z,19.10
2022-08-26T06:31:35.668Z,20.80
2022-08-26T06:34:05.241Z,19.20
2022-08-26T06:36:36.715Z,19.20
2022-08-26T06:39:06.551Z,19.40
2022-08-26T06:41:34.645Z,19.40
2022-08-26T06:44:01.988Z,20.70
2022-08-26T06:46:29.498Z,19.70
2022-08-26T06:48:58.160Z,19.60
2022-08-26T06:51:30.155Z,19.60
2022-08-26T06:56:38.851Z,19.90
2022-08-26T07:01:37.741Z,20.10
2022-08-26T07:04:10.414Z,20.00
2022-08-26T07:06:39.869Z,20.20
2022-08-26T07:11:37.667Z,20.20
2022-08-26T07:16:32.904Z,20.40
2022-08-26T07:18:59.807Z,20.60
2022-08-26T07:21:29.967Z,20.70
2022-08-26T07:24:01.309Z,20.70
2022-08-26T07:26:29.022Z,20.90
2022-08-26T07:28:56.576Z,20.90
2022-08-26T07:31:25.314Z,20.90
2022-08-26T07:33:52.057Z,20.90
2022-08-26T07:36:19.244Z,20.80
2022-08-26T07:38:46.284Z,21.00
2022-08-26T07:41:15.222Z,22.50
2022-08-26T07:43:43.662Z,21.10
2022-08-26T07:46:14.520Z,21.20
2022-08-26T07:48:46.078Z,21.30
2022-08-26T07:51:14.952Z,21.20
2022-08-26T07:53:42.641Z,21.10
2022-08-26T07:56:09.443Z,21.20
2022-08-26T07:58:38.385Z,21.20
2022-08-26T08:01:05.365Z,21.40
2022-08-26T08:03:34.482Z,21.50
2022-08-26T08:06:01.164Z,21.80
2022-08-26T08:13:24.065Z,21.70
2022-08-26T08:15:50.950Z,21.70
2022-08-26T08:18:20.407Z,21.80
2022-08-26T08:20:59.083Z,22.40
2022-08-26T08:23:31.984Z,22.40
2022-08-26T08:26:06.467Z,22.40
2022-08-26T08:28:35.598Z,22.50
2022-08-26T08:31:02.870Z,22.50
2022-08-26T08:33:33.546Z,22.60
2022-08-26T08:36:00.386Z,22.70
2022-08-26T08:40:54.512Z,22.60
2022-08-26T08:43:39.771Z,22.60
2022-08-26T08:46:12.777Z,23.00
2022-08-26T08:48:46.271Z,23.50
2022-08-26T08:51:31.805Z,23.40
2022-08-26T08:53:58.538Z,23.10
2022-08-26T08:56:35.203Z,23.50
2022-08-26T08:59:16.818Z,23.90
2022-08-26T09:01:59.752Z,24.40
2022-08-26T09:04:45.924Z,24.80
2022-08-26T09:07:18.503Z,24.90
2022-08-26T09:10:20.145Z,24.60
2022-08-26T09:12:49.703Z,24.60
2022-08-26T09:15:17.793Z,24.60
2022-08-26T09:18:16.853Z,25.00
2022-08-26T09:20:53.854Z,25.10
2022-08-26T09:23:23.914Z,24.80
2022-08-26T09:25:57.341Z,24.50
2022-08-26T09:28:26.346Z,24.40
2022-08-26T09:31:13.393Z,24.20
2022-08-26T09:33:40.366Z,24.40
2022-08-26T09:36:18.586Z,24.20
2022-08-26T09:38:46.035Z,24.00
2022-08-26T09:41:31.912Z,23.90
2022-08-26T09:44:15.772Z,24.00
2022-08-26T09:46:45.050Z,24.20
2022-08-26T09:49:26.660Z,24.40
2022-08-26T09:52:13.627Z,24.90
2022-08-26T09:54:40.960Z,24.90
2022-08-26T09:57:21.664Z,25.30
2022-08-26T09:59:49.510Z,25.80
2022-08-26T10:02:37.883Z,25.90
2022-08-26T10:05:09.612Z,26.30
2022-08-26T10:07:48.233Z,26.40
2022-08-26T10:10:22.485Z,26.60
2022-08-26T10:13:11.007Z,26.90
2022-08-26T10:15:50.684Z,27.20
2022-08-26T10:18:24.626Z,27.00
2022-08-26T10:21:07.796Z,27.20
2022-08-26T10:26:28.042Z,27.20
2022-08-26T10:29:07.484Z,27.10
2022-08-26T10:32:02.541Z,27.00
2022-08-26T10:34:31.563Z,26.50
2022-08-26T10:37:14.592Z,26.90
2022-08-26T10:39:59.343Z,26.90
2022-08-26T10:42:26.099Z,27.10
2022-08-26T10:44:58.700Z,27.10
2022-08-26T10:47:31.577Z,27.20
2022-08-26T10:50:03.225Z,27.00
2022-08-26T10:52:34.676Z,26.90
2022-08-26T10:55:25.245Z,27.10
2022-08-26T10:58:04.929Z,27.10
2022-08-26T11:01:02.729Z,27.30
2022-08-26T11:03:53.203Z,27.20
2022-08-26T11:06:23.409Z,27.50
2022-08-26T11:09:01.058Z,27.80
2022-08-26T11:11:40.049Z,28.20
2022-08-26T11:14:33.993Z,28.10
2022-08-26T11:17:11.737Z,28.00
2022-08-26T11:19:58.810Z,28.10
2022-08-26T11:22:35.188Z,27.90
2022-08-26T11:25:29.292Z,28.50
2022-08-26T11:28:00.418Z,29.00
2022-08-26T11:30:41.244Z,29.00
2022-08-26T11:33:08.482Z,29.40
2022-08-26T11:35:37.583Z,29.10
2022-08-26T11:38:23.762Z,29.40
2022-08-26T11:41:11.845Z,29.30
2022-08-26T11:43:39.260Z,30.00
2022-08-26T11:46:11.117Z,30.20
2022-08-26T11:48:42.225Z,29.80
2022-08-26T11:51:13.474Z,29.60
2022-08-26T11:53:42.690Z,29.80
2022-08-26T11:56:31.822Z,29.90
2022-08-26T11:59:00.339Z,29.30
2022-08-26T12:01:35.629Z,29.80
2022-08-26T12:04:07.719Z,30.10
2022-08-26T12:06:45.259Z,29.60
2022-08-26T12:09:52.558Z,29.60
2022-08-26T12:12:24.568Z,29.80
2022-08-26T12:15:16.845Z,30.10
2022-08-26T12:17:44.846Z,29.80
2022-08-26T12:20:48.830Z,29.20
2022-08-26T12:23:45.076Z,29.80
2022-08-26T12:26:30.496Z,30.10
2022-08-26T12:29:10.796Z,30.40
2022-08-26T12:31:50.891Z,30.40
2022-08-26T12:34:18.524Z,30.60
2022-08-26T12:39:31.019Z,30.90
2022-08-26T12:42:01.802Z,30.30
2022-08-26T12:44:38.647Z,30.50
2022-08-26T12:47:43.002Z,30.20
2022-08-26T12:50:27.175Z,29.80
2022-08-26T12:53:11.450Z,29.90
2022-08-26T12:55:43.069Z,29.80
2022-08-26T12:58:15.734Z,29.80
2022-08-26T13:00:47.324Z,29.30
2022-08-26T13:03:37.164Z,29.10
2022-08-26T13:06:22.729Z,29.40
2022-08-26T13:09:18.189Z,28.60
2022-08-26T13:11:45.188Z,28.20
2022-08-26T13:14:15.516Z,28.60
2022-08-26T13:16:49.192Z,29.50
2022-08-26T13:19:17.471Z,29.30
2022-08-26T13:21:55.271Z,29.20
2022-08-26T13:24:32.325Z,29.50
2022-08-26T13:26:59.085Z,29.20
2022-08-26T13:29:25.811Z,29.00
2022-08-26T13:31:53.542Z,28.90
2022-08-26T13:34:21.276Z,28.70
2022-08-26T13:36:49.508Z,28.50
2022-08-26T13:39:16.363Z,29.10
2022-08-26T13:41:43.316Z,29.70
2022-08-26T13:44:10.338Z,29.80
2022-08-26T13:46:37.116Z,30.00
2022-08-26T13:49:04.087Z,30.30
2022-08-26T13:53:58.162Z,30.10
2022-08-26T13:56:27.336Z,30.00
2022-08-26T13:58:54.080Z,30.10
2022-08-26T14:01:20.827Z,30.50
2022-08-26T14:03:47.735Z,30.50
2022-08-26T14:06:14.575Z,29.80
2022-08-26T14:08:41.384Z,30.10
2022-08-26T14:11:08.127Z,29.90
2022-08-26T14:13:34.916Z,29.70
2022-08-26T14:16:02.198Z,29.20
2022-08-26T14:18:37.265Z,28.60
2022-08-26T14:21:07.131Z,28.70
2022-08-26T14:23:34.001Z,28.80
2022-08-26T14:26:02.407Z,28.70
2022-08-26T14:28:29.117Z,28.80
2022-08-26T14:30:57.114Z,28.40
2022-08-26T14:33:25.642Z,28.60
2022-08-26T14:35:52.949Z,28.50
2022-08-26T14:38:19.608Z,28.40
2022-08-26T14:40:46.265Z,28.30
2022-08-26T14:43:15.092Z,28.20
2022-08-26T14:48:14.963Z,28.30
2022-08-26T14:50:41.672Z,28.20
2022-08-26T14:53:26.823Z,28.30
2022-08-26T14:55:53.567Z,28.50
2022-08-26T14:58:20.321Z,28.50
2022-08-26T15:00:47.109Z,28.50
2022-08-26T15:05:48.092Z,28.80
2022-08-26T15:08:15.573Z,28.90
2022-08-26T15:10:42.230Z,29.00
2022-08-26T15:13:08.899Z,28.60
2022-08-26T15:15:35.597Z,28.80
2022-08-26T15:18:02.322Z,28.50
2022-08-26T15:20:29.074Z,28.50
2022-08-26T15:22:55.806Z,28.60
2022-08-26T15:25:22.537Z,28.40
2022-08-26T15:27:49.198Z,28.30
2022-08-26T15:32:43.416Z,28.10
2022-08-26T15:35:10.119Z,28.20
2022-08-26T15:37:36.994Z,28.10
2022-08-26T15:40:04.654Z,28.20
2022-08-26T15:42:31.453Z,28.20
2022-08-26T15:44:58.127Z,28.10
2022-08-26T15:47:25.056Z,28.20
2022-08-26T15:49:51.760Z,28.20
2022-08-26T15:52:18.906Z,28.30
2022-08-26T15:54:45.564Z,28.30
2022-08-26T15:57:14.368Z,27.90
2022-08-26T15:59:42.073Z,27.40
2022-08-26T16:02:09.410Z,27.50
2022-08-26T16:04:36.235Z,27.50
2022-08-26T16:07:03.137Z,27.60
2022-08-26T16:09:30.708Z,27.60
2022-08-26T16:11:57.429Z,27.90
2022-08-26T16:14:24.813Z,27.90
2022-08-26T16:16:51.526Z,27.60
2022-08-26T16:19:18.280Z,27.70
2022-08-26T16:21:44.980Z,27.60
2022-08-26T16:24:12.030Z,27.40
2022-08-26T16:26:39.419Z,27.40
2022-08-26T16:29:08.953Z,27.40
2022-08-26T16:31:35.891Z,27.40
2022-08-26T16:34:02.586Z,27.40
2022-08-26T16:36:29.564Z,27.50
2022-08-26T16:38:56.351Z,27.50
2022-08-26T16:41:24.256Z,27.60
2022-08-26T16:43:51.016Z,27.70
2022-08-26T16:46:18.385Z,27.60
2022-08-26T16:48:45.276Z,29.00
2022-08-26T16:51:16.403Z,27.50
2022-08-26T16:53:43.784Z,27.60
2022-08-26T16:56:14.588Z,27.60
2022-08-26T16:58:41.336Z,27.50
2022-08-26T17:01:08.578Z,27.60
2022-08-26T17:03:35.412Z,27.70
2022-08-26T17:06:02.864Z,27.80
2022-08-26T17:08:30.371Z,27.90
2022-08-26T17:10:59.335Z,28.10
2022-08-26T17:13:35.134Z,27.90
2022-08-26T17:16:04.238Z,27.40
2022-08-26T17:18:31.315Z,27.10
2022-08-26T17:21:04.083Z,26.80
2022-08-26T17:23:31.001Z,25.80
2022-08-26T17:25:57.743Z,25.10
2022-08-26T17:28:24.448Z,24.50
2022-08-26T17:30:51.190Z,24.40
2022-08-26T17:33:22.043Z,24.50
2022-08-26T17:35:51.522Z,24.30
2022-08-26T17:38:18.208Z,24.20
2022-08-26T17:40:45.012Z,23.80
2022-08-26T17:43:12.427Z,23.70
2022-08-26T17:48:07.249Z,23.40
2022-08-26T17:50:34.066Z,23.30
2022-08-26T17:53:00.748Z,23.20
2022-08-26T17:55:27.440Z,23.10
2022-08-26T17:57:54.353Z,23.80
2022-08-26T18:00:22.893Z,22.80
2022-08-26T18:02:50.176Z,22.60
2022-08-26T18:05:17.730Z,22.60
2022-08-26T18:07:44.846Z,22.30
2022-08-26T18:10:14.046Z,22.20
2022-08-26T18:15:09.307Z,22.00
2022-08-26T18:17:36.108Z,23.30
2022-08-26T18:20:02.982Z,21.80
2022-08-26T18:24:59.171Z,21.70
2022-08-26T18:27:26.489Z,21.70
2022-08-26T18:29:53.273Z,21.60
2022-08-26T18:34:47.201Z,21.60
2022-08-26T18:44:39.944Z,21.40
2022-08-26T18:47:06.701Z,25.00
2022-08-26T18:49:33.426Z,21.30
2022-08-26T18:52:00.171Z,21.30
2022-08-26T18:54:27.042Z,21.40
2022-08-26T18:56:53.750Z,21.40
2022-08-26T18:59:20.446Z,21.30
2022-08-26T19:01:56.512Z,21.30
2022-08-26T19:04:23.344Z,21.30
2022-08-26T19:06:50.821Z,23.50
2022-08-26T19:09:18.086Z,21.20
2022-08-26T19:11:45.251Z,22.70
2022-08-26T19:14:13.620Z,20.70
2022-08-26T19:16:42.285Z,21.20
2022-08-26T19:19:09.205Z,20.90
2022-08-26T19:21:36.382Z,20.90
2022-08-26T19:24:05.534Z,20.90
2022-08-26T19:26:32.259Z,20.90
2022-08-26T19:28:59.007Z,20.90
2022-08-26T19:31:25.883Z,20.80
2022-08-26T19:33:52.724Z,20.80
2022-08-26T19:36:21.933Z,20.70
2022-08-26T19:38:48.892Z,20.60
2022-08-26T19:41:17.572Z,20.60
2022-08-26T19:46:18.426Z,20.50
2022-08-26T19:48:45.517Z,20.50
2022-08-26T19:51:24.242Z,20.40
2022-08-26T19:53:51.386Z,20.40
2022-08-26T19:56:18.293Z,20.30
2022-08-26T20:01:12.531Z,20.30
2022-08-26T20:06:07.600Z,20.20
2022-08-26T20:11:06.944Z,20.40
2022-08-26T20:13:33.653Z,20.70
2022-08-26T20:16:00.508Z,19.90
2022-08-26T20:21:29.155Z,20.00
2022-08-26T20:24:08.283Z,20.00
2022-08-26T20:26:36.307Z,19.60
2022-08-26T20:36:26.762Z,20.10
2022-08-26T20:38:53.625Z,20.00
2022-08-26T20:41:20.397Z,20.10
2022-08-26T20:43:47.197Z,20.00
2022-08-26T20:46:18.177Z,19.90
2022-08-26T20:48:46.719Z,19.70
2022-08-26T20:51:13.596Z,19.60
2022-08-26T20:56:09.212Z,19.60
2022-08-26T21:01:07.595Z,19.40
2022-08-26T21:06:03.130Z,19.40
2022-08-26T21:08:29.863Z,19.40
2022-08-26T21:10:59.918Z,19.30
2022-08-26T21:13:26.605Z,19.20
2022-08-26T21:15:56.519Z,19.10
2022-08-26T21:18:23.315Z,19.20
2022-08-26T21:20:51.498Z,19.10
2022-08-26T21:23:18.750Z,19.10
2022-08-26T21:25:45.888Z,19.10
2022-08-26T21:30:40.115Z,19.00
2022-08-26T21:33:07.403Z,20.50
2022-08-26T21:35:34.233Z,19.00
2022-08-26T21:38:01.096Z,19.10
2022-08-26T21:40:27.987Z,18.90
2022-08-26T21:47:49.346Z,18.90
2022-08-26T21:55:11.664Z,18.80
2022-08-26T22:00:08.803Z,18.80
2022-08-26T22:02:37.050Z,18.80
2022-08-26T22:05:04.004Z,18.80
2022-08-26T22:09:57.899Z,18.90
2022-08-26T22:14:51.978Z,19.00
2022-08-26T22:17:18.741Z,19.10
2022-08-26T22:22:13.765Z,19.10
2022-08-26T22:29:34.849Z,19.10
2022-08-26T22:32:01.638Z,19.30
2022-08-26T22:34:28.644Z,19.10
2022-08-26T22:36:55.628Z,19.10
2022-08-26T22:39:23.545Z,19.20
2022-08-26T22:41:50.356Z,19.80
2022-08-26T22:44:17.778Z,19.00
2022-08-26T22:46:45.078Z,19.10
2022-08-26T22:49:13.015Z,19.10
2022-08-26T22:51:39.811Z,19.10
2022-08-26T22:54:06.544Z,19.00
2022-08-26T22:59:00.396Z,19.00
2022-08-26T23:01:27.241Z,18.90
2022-08-26T23:08:48.251Z,18.80
2022-08-26T23:11:14.971Z,18.70
2022-08-26T23:13:41.891Z,18.70
2022-08-26T23:16:10.915Z,18.80
2022-08-26T23:18:38.360Z,19.30
2022-08-26T23:21:05.976Z,18.70
2022-08-26T23:23:32.772Z,18.60
2022-08-26T23:26:01.463Z,18.60
2022-08-26T23:28:31.878Z,18.50
2022-08-26T23:30:58.547Z,18.70
2022-08-26T23:33:45.201Z,18.60
2022-08-26T23:36:14.667Z,18.70
2022-08-26T23:43:46.161Z,19.00
2022-08-26T23:46:12.878Z,19.10
2022-08-26T23:48:39.596Z,19.10
2022-08-26T23:56:19.874Z,19.30
2022-08-26T23:58:47.163Z,19.20
